sensor_id;sensor_type;location;lat;lon;timestamp;temperature;humidity
37518;DHT22;23366;52.498;13.446;2023-05-23T00:01:35;18.70;69.40
37518;DHT22;23366;52.498;13.446;2023-05-23T00:04:02;18.60;69.30
37518;DHT22;23366;52.498;13.446;2023-05-23T00:06:28;18.60;69.60
37518;DHT22;23366;52.498;13.446;2023-05-23T00:08:53;18.60;69.60
37518;DHT22;23366;52.498;13.446;2023-05-23T00:11:19;18.60;69.70
37518;DHT22;23366;52.498;13.446;2023-05-23T00:13:48;18.60;69.90
37518;DHT22;23366;52.498;13.446;2023-05-23T00:16:15;18.60;69.90
37518;DHT22;23366;52.498;13.446;2023-05-23T00:18:42;18.60;69.90
37518;DHT22;23366;52.498;13.446;2023-05-23T00:21:10;18.60;70.20
37518;DHT22;23366;52.498;13.446;2023-05-23T00:23:35;18.60;70.40
37518;DHT22;23366;52.498;13.446;2023-05-23T00:26:01;18.60;70.40
37518;DHT22;23366;52.498;13.446;2023-05-23T00:28:26;18.60;70.40
37518;DHT22;23366;52.498;13.446;2023-05-23T00:30:52;18.50;71.00
37518;DHT22;23366;52.498;13.446;2023-05-23T00:33:17;18.50;70.20
37518;DHT22;23366;52.498;13.446;2023-05-23T00:35:46;18.50;70.30
37518;DHT22;23366;52.498;13.446;2023-05-23T00:38:12;18.40;70.00
37518;DHT22;23366;52.498;13.446;2023-05-23T00:40:38;18.40;70.90
37518;DHT22;23366;52.498;13.446;2023-05-23T00:43:04;18.40;70.20
37518;DHT22;23366;52.498;13.446;2023-05-23T00:45:30;18.40;70.70
37518;DHT22;23366;52.498;13.446;2023-05-23T00:47:55;18.30;70.90
37518;DHT22;23366;52.498;13.446;2023-05-23T00:50:22;18.30;71.20
37518;DHT22;23366;52.498;13.446;2023-05-23T00:52:48;18.30;71.10
37518;DHT22;23366;52.498;13.446;2023-05-23T00:55:14;18.30;71.40
37518;DHT22;23366;52.498;13.446;2023-05-23T00:57:40;18.20;71.40
37518;DHT22;23366;52.498;13.446;2023-05-23T01:00:12;18.20;71.50
37518;DHT22;23366;52.498;13.446;2023-05-23T01:02:43;18.10;71.30
37518;DHT22;23366;52.498;13.446;2023-05-23T01:05:10;18.10;71.80
37518;DHT22;23366;52.498;13.446;2023-05-23T01:07:36;18.00;71.80
37518;DHT22;23366;52.498;13.446;2023-05-23T01:10:02;18.00;71.80
37518;DHT22;23366;52.498;13.446;2023-05-23T01:18:09;17.90;72.10
37518;DHT22;23366;52.498;13.446;2023-05-23T01:20:56;17.90;72.20
37518;DHT22;23366;52.498;13.446;2023-05-23T01:23:45;17.90;72.40
37518;DHT22;23366;52.498;13.446;2023-05-23T01:29:19;17.90;72.50
37518;DHT22;23366;52.498;13.446;2023-05-23T01:31:48;17.80;72.60
37518;DHT22;23366;52.498;13.446;2023-05-23T01:34:17;17.80;72.50
37518;DHT22;23366;52.498;13.446;2023-05-23T01:36:43;17.80;72.70
37518;DHT22;23366;52.498;13.446;2023-05-23T01:39:09;17.80;72.70
37518;DHT22;23366;52.498;13.446;2023-05-23T01:41:35;17.80;72.90
37518;DHT22;23366;52.498;13.446;2023-05-23T01:44:02;17.80;73.10
37518;DHT22;23366;52.498;13.446;2023-05-23T01:46:28;17.80;73.20
37518;DHT22;23366;52.498;13.446;2023-05-23T01:48:54;17.80;73.20
37518;DHT22;23366;52.498;13.446;2023-05-23T01:51:21;17.80;73.60
37518;DHT22;23366;52.498;13.446;2023-05-23T01:53:48;17.70;73.50
37518;DHT22;23366;52.498;13.446;2023-05-23T01:56:14;17.80;74.00
37518;DHT22;23366;52.498;13.446;2023-05-23T01:58:40;17.80;73.70
37518;DHT22;23366;52.498;13.446;2023-05-23T02:01:05;17.80;73.70
37518;DHT22;23366;52.498;13.446;2023-05-23T02:03:31;17.70;73.80
37518;DHT22;23366;52.498;13.446;2023-05-23T02:05:56;17.80;73.60
37518;DHT22;23366;52.498;13.446;2023-05-23T02:08:22;17.70;73.90
37518;DHT22;23366;52.498;13.446;2023-05-23T02:10:47;17.70;74.00
37518;DHT22;23366;52.498;13.446;2023-05-23T02:13:13;17.70;73.90
37518;DHT22;23366;52.498;13.446;2023-05-23T02:15:38;17.70;74.20
37518;DHT22;23366;52.498;13.446;2023-05-23T02:18:04;17.70;74.10
37518;DHT22;23366;52.498;13.446;2023-05-23T02:20:30;17.70;74.20
37518;DHT22;23366;52.498;13.446;2023-05-23T02:22:56;17.70;74.20
37518;DHT22;23366;52.498;13.446;2023-05-23T02:25:21;17.70;74.30
37518;DHT22;23366;52.498;13.446;2023-05-23T02:27:47;17.70;74.10
37518;DHT22;23366;52.498;13.446;2023-05-23T02:30:12;17.70;74.10
37518;DHT22;23366;52.498;13.446;2023-05-23T02:32:38;17.70;74.10
37518;DHT22;23366;52.498;13.446;2023-05-23T02:35:04;17.70;74.20
37518;DHT22;23366;52.498;13.446;2023-05-23T02:37:30;17.70;74.00
37518;DHT22;23366;52.498;13.446;2023-05-23T02:39:55;17.70;74.20
37518;DHT22;23366;52.498;13.446;2023-05-23T02:42:21;17.70;74.10
37518;DHT22;23366;52.498;13.446;2023-05-23T02:44:46;17.70;74.10
37518;DHT22;23366;52.498;13.446;2023-05-23T02:47:12;17.70;74.40
37518;DHT22;23366;52.498;13.446;2023-05-23T02:49:37;17.60;74.40
37518;DHT22;23366;52.498;13.446;2023-05-23T02:52:03;17.60;74.50
37518;DHT22;23366;52.498;13.446;2023-05-23T02:54:29;17.60;74.60
37518;DHT22;23366;52.498;13.446;2023-05-23T02:56:55;17.60;74.80
37518;DHT22;23366;52.498;13.446;2023-05-23T02:59:21;17.60;74.80
37518;DHT22;23366;52.498;13.446;2023-05-23T03:01:47;17.60;75.00
37518;DHT22;23366;52.498;13.446;2023-05-23T03:04:13;17.50;75.10
37518;DHT22;23366;52.498;13.446;2023-05-23T03:06:38;17.50;75.00
37518;DHT22;23366;52.498;13.446;2023-05-23T03:09:06;17.50;75.10
37518;DHT22;23366;52.498;13.446;2023-05-23T03:11:36;17.50;75.10
37518;DHT22;23366;52.498;13.446;2023-05-23T03:14:01;17.50;75.20
37518;DHT22;23366;52.498;13.446;2023-05-23T03:16:27;17.50;74.90
37518;DHT22;23366;52.498;13.446;2023-05-23T03:18:52;17.50;75.00
37518;DHT22;23366;52.498;13.446;2023-05-23T03:21:18;17.50;75.20
37518;DHT22;23366;52.498;13.446;2023-05-23T03:23:43;17.60;75.20
37518;DHT22;23366;52.498;13.446;2023-05-23T03:26:09;17.60;75.20
37518;DHT22;23366;52.498;13.446;2023-05-23T03:28:34;17.60;75.30
37518;DHT22;23366;52.498;13.446;2023-05-23T03:31:00;17.50;75.40
37518;DHT22;23366;52.498;13.446;2023-05-23T03:33:25;17.60;76.60
37518;DHT22;23366;52.498;13.446;2023-05-23T03:35:51;17.50;78.30
37518;DHT22;23366;52.498;13.446;2023-05-23T03:38:17;17.50;77.50
37518;DHT22;23366;52.498;13.446;2023-05-23T03:40:42;17.40;77.70
37518;DHT22;23366;52.498;13.446;2023-05-23T03:43:08;17.50;78.40
37518;DHT22;23366;52.498;13.446;2023-05-23T03:45:33;17.40;78.10
37518;DHT22;23366;52.498;13.446;2023-05-23T03:48:00;17.40;78.10
37518;DHT22;23366;52.498;13.446;2023-05-23T03:50:26;17.40;77.40
37518;DHT22;23366;52.498;13.446;2023-05-23T03:52:52;17.40;77.40
37518;DHT22;23366;52.498;13.446;2023-05-23T03:55:19;17.40;77.10
37518;DHT22;23366;52.498;13.446;2023-05-23T03:57:49;17.30;77.00
37518;DHT22;23366;52.498;13.446;2023-05-23T04:00:16;17.30;77.30
37518;DHT22;23366;52.498;13.446;2023-05-23T04:02:43;17.30;77.30
37518;DHT22;23366;52.498;13.446;2023-05-23T04:05:10;17.30;77.20
37518;DHT22;23366;52.498;13.446;2023-05-23T04:07:36;17.30;77.40
37518;DHT22;23366;52.498;13.446;2023-05-23T04:10:02;17.30;77.60
37518;DHT22;23366;52.498;13.446;2023-05-23T04:12:28;17.30;77.30
37518;DHT22;23366;52.498;13.446;2023-05-23T04:14:57;17.30;77.60
37518;DHT22;23366;52.498;13.446;2023-05-23T04:17:24;17.30;77.40
37518;DHT22;23366;52.498;13.446;2023-05-23T04:19:50;17.30;77.30
37518;DHT22;23366;52.498;13.446;2023-05-23T04:22:16;17.40;77.00
37518;DHT22;23366;52.498;13.446;2023-05-23T04:24:41;17.30;77.30
37518;DHT22;23366;52.498;13.446;2023-05-23T04:27:07;17.30;77.40
37518;DHT22;23366;52.498;13.446;2023-05-23T04:29:34;17.40;77.50
37518;DHT22;23366;52.498;13.446;2023-05-23T04:32:03;17.40;77.50
37518;DHT22;23366;52.498;13.446;2023-05-23T04:34:28;17.40;77.30
37518;DHT22;23366;52.498;13.446;2023-05-23T04:36:55;17.40;78.10
37518;DHT22;23366;52.498;13.446;2023-05-23T04:39:20;17.50;79.60
37518;DHT22;23366;52.498;13.446;2023-05-23T04:41:45;17.40;79.10
37518;DHT22;23366;52.498;13.446;2023-05-23T04:44:11;17.40;79.50
37518;DHT22;23366;52.498;13.446;2023-05-23T04:46:39;17.30;79.70
37518;DHT22;23366;52.498;13.446;2023-05-23T04:49:09;17.30;80.00
37518;DHT22;23366;52.498;13.446;2023-05-23T04:51:35;17.30;79.50
37518;DHT22;23366;52.498;13.446;2023-05-23T04:54:01;17.30;81.40
37518;DHT22;23366;52.498;13.446;2023-05-23T04:56:26;17.20;80.50
37518;DHT22;23366;52.498;13.446;2023-05-23T04:58:53;17.10;81.20
37518;DHT22;23366;52.498;13.446;2023-05-23T05:01:18;17.10;81.40
37518;DHT22;23366;52.498;13.446;2023-05-23T05:03:44;17.10;80.90
37518;DHT22;23366;52.498;13.446;2023-05-23T05:06:09;17.10;80.60
37518;DHT22;23366;52.498;13.446;2023-05-23T05:08:35;17.10;80.40
37518;DHT22;23366;52.498;13.446;2023-05-23T05:11:01;17.20;80.50
37518;DHT22;23366;52.498;13.446;2023-05-23T05:13:26;17.20;80.90
37518;DHT22;23366;52.498;13.446;2023-05-23T05:15:52;17.20;80.30
37518;DHT22;23366;52.498;13.446;2023-05-23T05:18:17;17.30;80.60
37518;DHT22;23366;52.498;13.446;2023-05-23T05:20:43;17.20;80.60
37518;DHT22;23366;52.498;13.446;2023-05-23T05:23:08;17.30;83.10
37518;DHT22;23366;52.498;13.446;2023-05-23T05:25:34;17.20;85.70
37518;DHT22;23366;52.498;13.446;2023-05-23T05:28:01;17.10;85.40
37518;DHT22;23366;52.498;13.446;2023-05-23T05:30:32;17.10;87.20
37518;DHT22;23366;52.498;13.446;2023-05-23T05:33:00;17.00;85.70
37518;DHT22;23366;52.498;13.446;2023-05-23T05:35:27;17.10;86.00
37518;DHT22;23366;52.498;13.446;2023-05-23T05:37:52;17.00;86.40
37518;DHT22;23366;52.498;13.446;2023-05-23T05:40:18;17.10;86.40
37518;DHT22;23366;52.498;13.446;2023-05-23T05:42:43;17.10;85.50
37518;DHT22;23366;52.498;13.446;2023-05-23T05:45:09;17.20;84.00
37518;DHT22;23366;52.498;13.446;2023-05-23T05:47:35;17.30;83.30
37518;DHT22;23366;52.498;13.446;2023-05-23T05:50:05;17.30;83.30
37518;DHT22;23366;52.498;13.446;2023-05-23T05:52:33;17.30;83.40
37518;DHT22;23366;52.498;13.446;2023-05-23T05:55:03;17.40;84.30
37518;DHT22;23366;52.498;13.446;2023-05-23T05:57:31;17.40;84.50
37518;DHT22;23366;52.498;13.446;2023-05-23T05:59:56;17.50;83.50
37518;DHT22;23366;52.498;13.446;2023-05-23T06:02:22;17.60;84.40
37518;DHT22;23366;52.498;13.446;2023-05-23T06:04:47;17.60;85.50
37518;DHT22;23366;52.498;13.446;2023-05-23T06:07:13;17.70;87.40
37518;DHT22;23366;52.498;13.446;2023-05-23T06:09:38;17.60;87.40
37518;DHT22;23366;52.498;13.446;2023-05-23T06:12:04;17.60;86.80
37518;DHT22;23366;52.498;13.446;2023-05-23T06:14:29;17.60;86.20
37518;DHT22;23366;52.498;13.446;2023-05-23T06:16:55;17.70;85.00
37518;DHT22;23366;52.498;13.446;2023-05-23T06:19:20;17.70;85.60
37518;DHT22;23366;52.498;13.446;2023-05-23T06:21:46;17.70;83.80
37518;DHT22;23366;52.498;13.446;2023-05-23T06:24:11;17.70;83.60
37518;DHT22;23366;52.498;13.446;2023-05-23T06:26:37;17.70;83.80
37518;DHT22;23366;52.498;13.446;2023-05-23T06:29:03;17.80;83.30
37518;DHT22;23366;52.498;13.446;2023-05-23T06:31:28;17.80;82.70
37518;DHT22;23366;52.498;13.446;2023-05-23T06:33:54;17.80;82.50
37518;DHT22;23366;52.498;13.446;2023-05-23T06:36:19;17.80;82.30
37518;DHT22;23366;52.498;13.446;2023-05-23T06:38:46;17.80;82.10
37518;DHT22;23366;52.498;13.446;2023-05-23T06:41:11;17.90;82.00
37518;DHT22;23366;52.498;13.446;2023-05-23T06:43:37;18.00;82.00
37518;DHT22;23366;52.498;13.446;2023-05-23T06:46:03;18.10;81.50
37518;DHT22;23366;52.498;13.446;2023-05-23T06:48:29;18.30;81.10
37518;DHT22;23366;52.498;13.446;2023-05-23T06:50:54;18.60;80.40
37518;DHT22;23366;52.498;13.446;2023-05-23T06:53:19;18.80;79.20
37518;DHT22;23366;52.498;13.446;2023-05-23T06:55:45;19.10;78.40
37518;DHT22;23366;52.498;13.446;2023-05-23T06:58:10;19.40;78.00
37518;DHT22;23366;52.498;13.446;2023-05-23T07:00:36;19.80;77.20
37518;DHT22;23366;52.498;13.446;2023-05-23T07:03:02;20.60;76.00
37518;DHT22;23366;52.498;13.446;2023-05-23T07:05:28;22.30;72.50
37518;DHT22;23366;52.498;13.446;2023-05-23T07:07:54;23.90;67.40
37518;DHT22;23366;52.498;13.446;2023-05-23T07:10:20;25.10;64.50
37518;DHT22;23366;52.498;13.446;2023-05-23T07:12:46;25.20;63.10
37518;DHT22;23366;52.498;13.446;2023-05-23T07:15:11;25.20;62.70
37518;DHT22;23366;52.498;13.446;2023-05-23T07:17:37;25.00;63.10
37518;DHT22;23366;52.498;13.446;2023-05-23T07:20:03;24.70;63.60
37518;DHT22;23366;52.498;13.446;2023-05-23T07:22:29;24.70;64.30
37518;DHT22;23366;52.498;13.446;2023-05-23T07:24:55;24.50;64.40
37518;DHT22;23366;52.498;13.446;2023-05-23T07:27:21;24.40;64.30
37518;DHT22;23366;52.498;13.446;2023-05-23T07:29:46;24.20;64.90
37518;DHT22;23366;52.498;13.446;2023-05-23T07:32:12;24.00;65.30
37518;DHT22;23366;52.498;13.446;2023-05-23T07:34:37;23.80;64.70
37518;DHT22;23366;52.498;13.446;2023-05-23T07:37:03;23.80;63.70
37518;DHT22;23366;52.498;13.446;2023-05-23T07:39:28;23.70;63.80
37518;DHT22;23366;52.498;13.446;2023-05-23T07:41:54;23.80;64.30
37518;DHT22;23366;52.498;13.446;2023-05-23T07:44:19;23.90;63.50
37518;DHT22;23366;52.498;13.446;2023-05-23T07:46:45;24.20;63.00
37518;DHT22;23366;52.498;13.446;2023-05-23T07:49:10;24.40;62.70
37518;DHT22;23366;52.498;13.446;2023-05-23T07:51:36;24.70;62.30
37518;DHT22;23366;52.498;13.446;2023-05-23T07:54:01;24.90;61.60
37518;DHT22;23366;52.498;13.446;2023-05-23T07:56:27;25.20;60.80
37518;DHT22;23366;52.498;13.446;2023-05-23T07:58:52;25.40;60.50
37518;DHT22;23366;52.498;13.446;2023-05-23T08:01:18;25.50;60.30
37518;DHT22;23366;52.498;13.446;2023-05-23T08:03:44;25.50;60.30
37518;DHT22;23366;52.498;13.446;2023-05-23T08:06:10;25.70;60.40
37518;DHT22;23366;52.498;13.446;2023-05-23T08:08:35;25.80;60.10
37518;DHT22;23366;52.498;13.446;2023-05-23T08:11:02;25.90;60.00
37518;DHT22;23366;52.498;13.446;2023-05-23T08:13:29;26.30;59.30
37518;DHT22;23366;52.498;13.446;2023-05-23T08:15:54;26.50;58.40
37518;DHT22;23366;52.498;13.446;2023-05-23T08:18:19;26.50;58.40
37518;DHT22;23366;52.498;13.446;2023-05-23T08:20:45;26.40;58.50
37518;DHT22;23366;52.498;13.446;2023-05-23T08:23:11;26.70;58.50
37518;DHT22;23366;52.498;13.446;2023-05-23T08:25:37;27.30;57.70
37518;DHT22;23366;52.498;13.446;2023-05-23T08:28:02;27.70;57.00
37518;DHT22;23366;52.498;13.446;2023-05-23T08:30:28;28.30;56.20
37518;DHT22;23366;52.498;13.446;2023-05-23T08:32:54;28.90;55.90
37518;DHT22;23366;52.498;13.446;2023-05-23T08:35:20;29.40;55.60
37518;DHT22;23366;52.498;13.446;2023-05-23T08:37:47;30.90;54.50
37518;DHT22;23366;52.498;13.446;2023-05-23T08:40:20;32.70;52.40
37518;DHT22;23366;52.498;13.446;2023-05-23T08:42:46;33.80;50.90
37518;DHT22;23366;52.498;13.446;2023-05-23T08:45:13;34.10;50.10
37518;DHT22;23366;52.498;13.446;2023-05-23T08:47:41;33.70;50.10
37518;DHT22;23366;52.498;13.446;2023-05-23T08:50:09;32.90;51.00
37518;DHT22;23366;52.498;13.446;2023-05-23T08:52:37;32.30;51.70
37518;DHT22;23366;52.498;13.446;2023-05-23T08:55:06;32.20;51.90
37518;DHT22;23366;52.498;13.446;2023-05-23T08:57:33;32.00;52.00
37518;DHT22;23366;52.498;13.446;2023-05-23T09:00:01;31.40;52.60
37518;DHT22;23366;52.498;13.446;2023-05-23T09:02:30;30.90;53.20
37518;DHT22;23366;52.498;13.446;2023-05-23T09:04:56;30.30;54.20
37518;DHT22;23366;52.498;13.446;2023-05-23T09:07:23;29.80;55.00
37518;DHT22;23366;52.498;13.446;2023-05-23T09:09:49;29.70;55.90
37518;DHT22;23366;52.498;13.446;2023-05-23T09:12:15;30.60;55.30
37518;DHT22;23366;52.498;13.446;2023-05-23T09:14:41;32.10;53.70
37518;DHT22;23366;52.498;13.446;2023-05-23T09:17:06;33.40;52.80
37518;DHT22;23366;52.498;13.446;2023-05-23T09:19:32;34.80;51.20
37518;DHT22;23366;52.498;13.446;2023-05-23T09:21:57;35.90;50.30
37518;DHT22;23366;52.498;13.446;2023-05-23T09:24:36;36.70;49.30
37518;DHT22;23366;52.498;13.446;2023-05-23T09:27:04;36.90;48.80
37518;DHT22;23366;52.498;13.446;2023-05-23T09:29:30;36.40;48.90
37518;DHT22;23366;52.498;13.446;2023-05-23T09:32:09;35.40;49.80
37518;DHT22;23366;52.498;13.446;2023-05-23T09:34:34;34.50;51.20
37518;DHT22;23366;52.498;13.446;2023-05-23T09:37:00;33.80;52.00
37518;DHT22;23366;52.498;13.446;2023-05-23T09:39:25;33.50;53.00
37518;DHT22;23366;52.498;13.446;2023-05-23T09:41:51;33.10;53.30
37518;DHT22;23366;52.498;13.446;2023-05-23T09:44:21;32.40;54.40
37518;DHT22;23366;52.498;13.446;2023-05-23T09:46:49;31.90;55.40
37518;DHT22;23366;52.498;13.446;2023-05-23T09:49:17;31.70;56.00
37518;DHT22;23366;52.498;13.446;2023-05-23T09:51:43;31.40;56.20
37518;DHT22;23366;52.498;13.446;2023-05-23T09:54:09;31.00;57.00
37518;DHT22;23366;52.498;13.446;2023-05-23T09:56:38;30.60;57.60
37518;DHT22;23366;52.498;13.446;2023-05-23T09:59:04;30.40;58.20
37518;DHT22;23366;52.498;13.446;2023-05-23T10:01:33;29.70;58.90
37518;DHT22;23366;52.498;13.446;2023-05-23T10:03:59;29.50;59.50
37518;DHT22;23366;52.498;13.446;2023-05-23T10:06:41;29.40;59.90
37518;DHT22;23366;52.498;13.446;2023-05-23T10:09:16;29.30;60.20
37518;DHT22;23366;52.498;13.446;2023-05-23T10:12:18;29.20;60.60
37518;DHT22;23366;52.498;13.446;2023-05-23T10:14:51;29.00;61.10
37518;DHT22;23366;52.498;13.446;2023-05-23T10:17:27;28.90;61.10
37518;DHT22;23366;52.498;13.446;2023-05-23T10:20:00;28.70;61.50
37518;DHT22;23366;52.498;13.446;2023-05-23T10:22:28;28.50;61.70
37518;DHT22;23366;52.498;13.446;2023-05-23T10:24:54;28.40;61.70
37518;DHT22;23366;52.498;13.446;2023-05-23T10:27:20;28.50;61.80
37518;DHT22;23366;52.498;13.446;2023-05-23T10:29:45;28.20;61.80
37518;DHT22;23366;52.498;13.446;2023-05-23T10:32:11;28.00;62.90
37518;DHT22;23366;52.498;13.446;2023-05-23T10:37:48;27.80;64.40
37518;DHT22;23366;52.498;13.446;2023-05-23T10:40:45;27.60;65.20
37518;DHT22;23366;52.498;13.446;2023-05-23T10:44:04;27.40;65.60
37518;DHT22;23366;52.498;13.446;2023-05-23T10:46:08;27.40;66.30
37518;DHT22;23366;52.498;13.446;2023-05-23T10:48:39;27.60;66.50
37518;DHT22;23366;52.498;13.446;2023-05-23T10:51:07;27.90;66.40
37518;DHT22;23366;52.498;13.446;2023-05-23T10:53:44;28.20;65.90
37518;DHT22;23366;52.498;13.446;2023-05-23T10:56:21;28.20;65.70
37518;DHT22;23366;52.498;13.446;2023-05-23T10:58:54;28.20;66.60
37518;DHT22;23366;52.498;13.446;2023-05-23T11:01:20;27.90;68.10
37518;DHT22;23366;52.498;13.446;2023-05-23T11:06:39;27.50;70.10
37518;DHT22;23366;52.498;13.446;2023-05-23T11:09:14;27.50;70.50
37518;DHT22;23366;52.498;13.446;2023-05-23T11:14:50;27.20;71.00
37518;DHT22;23366;52.498;13.446;2023-05-23T11:17:24;27.10;71.60
37518;DHT22;23366;52.498;13.446;2023-05-23T11:20:04;26.70;72.60
37518;DHT22;23366;52.498;13.446;2023-05-23T11:22:31;26.50;74.10
37518;DHT22;23366;52.498;13.446;2023-05-23T11:24:59;26.20;74.20
37518;DHT22;23366;52.498;13.446;2023-05-23T11:27:35;26.00;74.60
37518;DHT22;23366;52.498;13.446;2023-05-23T11:30:08;26.00;74.70
37518;DHT22;23366;52.498;13.446;2023-05-23T11:32:35;25.90;75.10
37518;DHT22;23366;52.498;13.446;2023-05-23T11:35:06;25.80;75.20
37518;DHT22;23366;52.498;13.446;2023-05-23T11:37:32;25.70;75.50
37518;DHT22;23366;52.498;13.446;2023-05-23T11:39:58;25.50;75.80
37518;DHT22;23366;52.498;13.446;2023-05-23T11:42:24;25.40;76.20
37518;DHT22;23366;52.498;13.446;2023-05-23T11:44:50;25.30;77.20
37518;DHT22;23366;52.498;13.446;2023-05-23T11:47:17;25.20;77.70
37518;DHT22;23366;52.498;13.446;2023-05-23T11:49:45;25.20;77.70
37518;DHT22;23366;52.498;13.446;2023-05-23T11:52:13;25.00;77.50
37518;DHT22;23366;52.498;13.446;2023-05-23T11:54:40;25.00;77.70
37518;DHT22;23366;52.498;13.446;2023-05-23T11:57:06;24.80;77.90
37518;DHT22;23366;52.498;13.446;2023-05-23T11:59:32;24.60;78.80
37518;DHT22;23366;52.498;13.446;2023-05-23T12:01:58;24.40;79.40
37518;DHT22;23366;52.498;13.446;2023-05-23T12:04:24;24.40;79.80
37518;DHT22;23366;52.498;13.446;2023-05-23T12:06:51;24.40;79.90
37518;DHT22;23366;52.498;13.446;2023-05-23T12:09:16;24.30;80.00
37518;DHT22;23366;52.498;13.446;2023-05-23T12:11:43;24.20;80.50
37518;DHT22;23366;52.498;13.446;2023-05-23T12:14:13;24.20;80.80
37518;DHT22;23366;52.498;13.446;2023-05-23T12:16:39;24.00;81.10
37518;DHT22;23366;52.498;13.446;2023-05-23T12:19:07;23.90;81.30
37518;DHT22;23366;52.498;13.446;2023-05-23T12:21:47;23.90;81.60
37518;DHT22;23366;52.498;13.446;2023-05-23T12:24:19;23.90;81.80
37518;DHT22;23366;52.498;13.446;2023-05-23T12:26:58;24.00;81.60
37518;DHT22;23366;52.498;13.446;2023-05-23T12:29:33;24.00;81.20
37518;DHT22;23366;52.498;13.446;2023-05-23T12:32:01;24.20;80.50
37518;DHT22;23366;52.498;13.446;2023-05-23T12:34:27;24.30;80.00
37518;DHT22;23366;52.498;13.446;2023-05-23T12:36:56;24.50;79.40
37518;DHT22;23366;52.498;13.446;2023-05-23T12:39:28;24.50;79.30
37518;DHT22;23366;52.498;13.446;2023-05-23T12:41:55;24.70;79.00
37518;DHT22;23366;52.498;13.446;2023-05-23T12:44:30;24.50;78.80
37518;DHT22;23366;52.498;13.446;2023-05-23T12:46:56;24.30;79.30
37518;DHT22;23366;52.498;13.446;2023-05-23T12:49:21;24.00;80.20
37518;DHT22;23366;52.498;13.446;2023-05-23T12:51:47;23.90;80.60
37518;DHT22;23366;52.498;13.446;2023-05-23T12:54:12;23.90;81.00
37518;DHT22;23366;52.498;13.446;2023-05-23T12:56:38;23.90;81.10
37518;DHT22;23366;52.498;13.446;2023-05-23T12:59:03;23.80;81.10
37518;DHT22;23366;52.498;13.446;2023-05-23T13:01:29;23.70;81.20
37518;DHT22;23366;52.498;13.446;2023-05-23T13:03:55;23.60;81.50
37518;DHT22;23366;52.498;13.446;2023-05-23T13:06:20;23.50;81.60
37518;DHT22;23366;52.498;13.446;2023-05-23T13:08:46;23.30;82.00
37518;DHT22;23366;52.498;13.446;2023-05-23T13:11:13;23.30;83.00
37518;DHT22;23366;52.498;13.446;2023-05-23T13:13:38;23.30;82.40
37518;DHT22;23366;52.498;13.446;2023-05-23T13:16:04;23.30;82.50
37518;DHT22;23366;52.498;13.446;2023-05-23T13:18:30;23.40;82.30
37518;DHT22;23366;52.498;13.446;2023-05-23T13:20:55;23.40;82.20
37518;DHT22;23366;52.498;13.446;2023-05-23T13:23:21;23.50;82.40
37518;DHT22;23366;52.498;13.446;2023-05-23T13:25:46;23.50;82.20
37518;DHT22;23366;52.498;13.446;2023-05-23T13:28:14;23.50;82.30
37518;DHT22;23366;52.498;13.446;2023-05-23T13:30:40;23.50;82.30
37518;DHT22;23366;52.498;13.446;2023-05-23T13:33:05;23.30;82.80
37518;DHT22;23366;52.498;13.446;2023-05-23T13:35:31;23.20;83.60
37518;DHT22;23366;52.498;13.446;2023-05-23T13:37:56;23.00;84.20
37518;DHT22;23366;52.498;13.446;2023-05-23T13:40:22;22.80;84.60
37518;DHT22;23366;52.498;13.446;2023-05-23T13:42:49;22.60;85.40
37518;DHT22;23366;52.498;13.446;2023-05-23T13:45:15;22.40;86.30
37518;DHT22;23366;52.498;13.446;2023-05-23T13:47:42;22.20;87.50
37518;DHT22;23366;52.498;13.446;2023-05-23T13:50:08;22.10;88.30
37518;DHT22;23366;52.498;13.446;2023-05-23T13:52:34;22.00;88.20
37518;DHT22;23366;52.498;13.446;2023-05-23T13:55:00;21.90;89.20
37518;DHT22;23366;52.498;13.446;2023-05-23T13:57:26;21.90;88.80
37518;DHT22;23366;52.498;13.446;2023-05-23T13:59:51;22.00;89.00
37518;DHT22;23366;52.498;13.446;2023-05-23T14:02:17;22.00;89.00
37518;DHT22;23366;52.498;13.446;2023-05-23T14:04:42;21.90;88.90
37518;DHT22;23366;52.498;13.446;2023-05-23T14:07:08;21.90;89.10
37518;DHT22;23366;52.498;13.446;2023-05-23T14:09:33;21.80;89.20
37518;DHT22;23366;52.498;13.446;2023-05-23T14:11:58;21.80;89.20
37518;DHT22;23366;52.498;13.446;2023-05-23T14:14:24;21.80;89.00
37518;DHT22;23366;52.498;13.446;2023-05-23T14:16:51;21.90;88.70
37518;DHT22;23366;52.498;13.446;2023-05-23T14:19:17;21.90;88.70
37518;DHT22;23366;52.498;13.446;2023-05-23T14:21:43;21.90;88.80
37518;DHT22;23366;52.498;13.446;2023-05-23T14:24:08;21.80;89.20
37518;DHT22;23366;52.498;13.446;2023-05-23T14:26:34;21.80;89.40
37518;DHT22;23366;52.498;13.446;2023-05-23T14:28:59;21.80;89.80
37518;DHT22;23366;52.498;13.446;2023-05-23T14:31:25;21.60;90.10
37518;DHT22;23366;52.498;13.446;2023-05-23T14:33:50;21.50;90.40
37518;DHT22;23366;52.498;13.446;2023-05-23T14:36:16;21.40;90.60
37518;DHT22;23366;52.498;13.446;2023-05-23T14:38:42;21.30;90.90
37518;DHT22;23366;52.498;13.446;2023-05-23T14:41:13;21.20;91.10
37518;DHT22;23366;52.498;13.446;2023-05-23T14:43:39;21.10;91.50
37518;DHT22;23366;52.498;13.446;2023-05-23T14:46:04;20.90;91.90
37518;DHT22;23366;52.498;13.446;2023-05-23T14:48:30;20.80;92.50
37518;DHT22;23366;52.498;13.446;2023-05-23T14:50:56;20.70;92.60
37518;DHT22;23366;52.498;13.446;2023-05-23T14:53:28;20.60;92.90
37518;DHT22;23366;52.498;13.446;2023-05-23T14:55:54;20.60;93.30
37518;DHT22;23366;52.498;13.446;2023-05-23T14:58:21;20.50;93.80
37518;DHT22;23366;52.498;13.446;2023-05-23T15:00:47;20.40;93.90
37518;DHT22;23366;52.498;13.446;2023-05-23T15:03:13;20.30;94.50
37518;DHT22;23366;52.498;13.446;2023-05-23T15:05:39;20.20;95.40
37518;DHT22;23366;52.498;13.446;2023-05-23T15:08:04;20.10;96.00
37518;DHT22;23366;52.498;13.446;2023-05-23T15:10:30;20.00;96.80
37518;DHT22;23366;52.498;13.446;2023-05-23T15:12:56;19.90;97.20
37518;DHT22;23366;52.498;13.446;2023-05-23T15:15:21;19.80;97.60
37518;DHT22;23366;52.498;13.446;2023-05-23T15:17:48;19.70;98.50
37518;DHT22;23366;52.498;13.446;2023-05-23T15:20:15;19.60;98.60
37518;DHT22;23366;52.498;13.446;2023-05-23T15:22:40;19.50;98.40
37518;DHT22;23366;52.498;13.446;2023-05-23T15:25:07;19.40;98.60
37518;DHT22;23366;52.498;13.446;2023-05-23T15:27:32;19.30;98.70
37518;DHT22;23366;52.498;13.446;2023-05-23T15:29:58;19.30;98.80
37518;DHT22;23366;52.498;13.446;2023-05-23T15:32:23;19.20;98.80